Weather reports worldwide

Advertisment
Monks wood, United Kingdom (99078): temperature & dewpoint: 09.11.2018 05:00:00 - 15.11.2018 05:00:00 (GMT)Monks wood, United Kingdom (99078): temperature -20cm & temperature -100cm: 09.11.2018 05:00:00 - 15.11.2018 05:00:00 (GMT)Monks wood, United Kingdom (99078): wind speed & gusts: 09.11.2018 05:00:00 - 15.11.2018 05:00:00 (GMT)Monks wood, United Kingdom (99078): wind direction: 09.11.2018 05:00:00 - 15.11.2018 05:00:00 (GMT)Monks wood, United Kingdom (99078): precipitation: 09.11.2018 05:00:00 - 15.11.2018 05:00:00 (GMT)
Date & Time tt [°C] td [°C] tt -20cm [°C] tt -100cm [°C] ff [km/h] ff [kn] fx [km/h] fx [kn] dd rr [mm]
15.11.2018 05:00:00 - - - - - - - - - -
15.11.2018 04:00:00 10,3 10,2 - - 4 2 - - SSE 0,0
15.11.2018 03:00:00 10,2 10,1 - - 4 2 - - SSW 0,0
15.11.2018 02:00:00 10,1 10,0 - - 8 4 - - SSW 0,0
15.11.2018 01:00:00 9,4 9,3 - - 11 6 - - SSW 0,0
15.11.2018 00:00:00 8,4 7,8 - - 9 5 - - S 0,0
14.11.2018 23:00:00 9,0 8,3 - - 16 9 - - SSW 0,0
14.11.2018 22:00:00 7,8 7,0 - - 9 5 - - SSW 0,0
14.11.2018 21:00:00 8,7 7,5 - - 11 6 - - SSW 0,0
14.11.2018 20:00:00 8,8 6,8 - - 13 7 - - S 0,0
14.11.2018 19:00:00 9,0 6,3 - - 13 7 - - S 0,0
14.11.2018 18:00:00 10,0 6,9 - - 9 5 - - S 0,0
14.11.2018 17:00:00 11,0 6,9 - - 13 7 - - S 0,0
14.11.2018 16:00:00 12,2 6,8 - - 13 7 - - SSW 0,0
14.11.2018 15:00:00 14,1 6,7 - - 18 10 - - SSW 0,0
14.11.2018 14:00:00 14,4 7,6 - - 21 11 - - SSW 0,0
14.11.2018 13:00:00 14,1 8,6 - - 24 13 - - SSW 0,0
14.11.2018 12:00:00 13,6 8,9 - - 24 13 - - SSW 0,0
14.11.2018 11:00:00 12,9 9,2 - - 26 14 - - SSW 0,0
14.11.2018 10:00:00 12,1 9,1 - - 21 11 - - SSW 0,0
14.11.2018 09:00:00 11,2 8,6 10,0 11,2 21 11 - - SSW 0,0
14.11.2018 08:00:00 11,0 8,6 - - 24 13 - - SSW 0,0
14.11.2018 07:00:00 10,5 8,7 - - 15 8 - - SSW 0,0
14.11.2018 06:00:00 10,3 8,9 - - 16 9 - - SSW 0,0
14.11.2018 05:00:00 10,1 8,7 - - 15 8 - - S 0,0
14.11.2018 04:00:00 10,1 8,7 - - 13 7 - - S 0,0
14.11.2018 03:00:00 9,9 8,5 - - 15 8 - - S 0,0
14.11.2018 02:00:00 9,7 8,3 - - 13 7 - - S 0,0
14.11.2018 01:00:00 9,8 8,3 - - 16 9 - - SSW 0,0
14.11.2018 00:00:00 9,7 8,2 - - 18 10 - - SSW 0,0
13.11.2018 23:00:00 9,2 7,6 - - 13 7 - - SSW 0,0
13.11.2018 22:00:00 9,0 7,2 - - 11 6 - - SSW 0,0
13.11.2018 21:00:00 9,0 6,7 - - 15 8 - - SSW 0,0
13.11.2018 20:00:00 9,3 6,3 - - 15 8 - - SSW 0,0
13.11.2018 19:00:00 9,6 6,5 - - 16 9 - - SSW 0,0
13.11.2018 18:00:00 9,4 6,5 - - 11 6 - - SSW 0,0
13.11.2018 17:00:00 9,7 6,7 - - 13 7 - - SW 0,0
13.11.2018 16:00:00 10,9 7,0 - - 15 8 - - SW 0,0
13.11.2018 15:00:00 12,8 7,1 - - 18 10 - - WSW 0,0
13.11.2018 14:00:00 12,9 7,7 - - 24 13 - - SW 0,0
13.11.2018 13:00:00 13,1 7,4 - - 21 11 - - SW 0,0
13.11.2018 12:00:00 13,0 7,1 - - 21 11 - - WSW 0,0
13.11.2018 11:00:00 12,1 7,6 - - 18 10 - - WSW 0,0
13.11.2018 10:00:00 10,4 7,1 - - 22 12 - - WSW 0,0
13.11.2018 09:00:00 8,7 6,7 10,0 11,4 21 11 - - SW 0,0
13.11.2018 08:00:00 7,3 5,8 - - 18 10 - - SW 0,0
13.11.2018 07:00:00 7,0 5,4 - - 18 10 - - SW 0,0
13.11.2018 06:00:00 7,2 5,5 - - 18 10 - - SW 0,0
13.11.2018 05:00:00 7,3 5,5 - - 18 10 - - SW 0,0
13.11.2018 04:00:00 7,9 6,0 - - 18 10 - - SW 0,0
13.11.2018 03:00:00 7,7 5,5 - - 16 9 - - SSW 0,0
13.11.2018 02:00:00 8,0 5,5 - - 18 10 - - SW 0,0
13.11.2018 01:00:00 8,5 6,4 - - 16 9 - - SSW 0,0
13.11.2018 00:00:00 8,9 7,0 - - 16 9 - - SSW 0,0
12.11.2018 23:00:00 9,2 6,9 - - 16 9 - - SSW 0,0
12.11.2018 22:00:00 9,5 7,3 - - 16 9 - - SSW 0,0
12.11.2018 21:00:00 9,4 7,3 - - 15 8 - - SSW 0,0
12.11.2018 20:00:00 10,1 7,5 - - 18 10 - - SSW 0,0
12.11.2018 19:00:00 10,4 7,7 - - 15 8 - - SSW 0,0
12.11.2018 18:00:00 10,7 7,1 - - 16 9 - - SSW 0,0
12.11.2018 17:00:00 11,2 7,3 - - 15 8 - - SSW 0,0
12.11.2018 16:00:00 12,3 6,9 - - 15 8 - - SSW 0,0
12.11.2018 15:00:00 13,6 8,2 - - 15 8 - - SSW 0,0
12.11.2018 14:00:00 13,5 8,4 - - 18 10 - - SSW 0,0
12.11.2018 13:00:00 13,1 8,5 - - 18 10 - - SSW 0,0
12.11.2018 12:00:00 13,9 9,6 - - 21 11 - - SSW 0,0
12.11.2018 11:00:00 12,8 10,0 - - 21 11 - - SSW 0,0
12.11.2018 10:00:00 11,5 9,7 - - 13 7 - - SSW 0,0
12.11.2018 09:00:00 9,2 8,7 10,0 11,4 13 7 - - SSW 0,0
12.11.2018 08:00:00 8,6 8,1 - - 11 6 - - S 0,0
12.11.2018 07:00:00 8,7 7,9 - - 13 7 - - S 0,0
12.11.2018 06:00:00 8,9 7,4 - - 11 6 - - S 0,0
12.11.2018 05:00:00 8,9 7,2 - - 9 5 - - S 0,0
12.11.2018 04:00:00 9,2 7,6 - - 11 6 - - S 0,0
12.11.2018 03:00:00 9,3 7,6 - - 13 7 - - S 0,0
12.11.2018 02:00:00 8,9 7,6 - - 11 6 - - S 0,0
12.11.2018 01:00:00 8,3 7,0 - - 11 6 - - S 0,0
12.11.2018 00:00:00 8,3 7,0 - - 13 7 - - S 0,0
11.11.2018 23:00:00 7,8 6,5 - - 11 6 - - SSW 0,0
11.11.2018 22:00:00 7,6 6,3 - - 11 6 - - S 0,0
11.11.2018 21:00:00 7,4 6,4 - - 11 6 - - SSW 0,0
11.11.2018 20:00:00 7,6 6,1 - - 9 5 - - SSW 0,0
11.11.2018 19:00:00 7,9 5,8 - - 9 5 - - S 0,0
11.11.2018 18:00:00 9,5 6,0 - - 15 8 - - SSW 0,0
11.11.2018 17:00:00 10,1 5,8 - - 13 7 - - SSW 0,0
11.11.2018 16:00:00 10,8 5,7 - - 15 8 - - SSW 0,0
11.11.2018 15:00:00 12,4 6,1 - - 18 10 - - SW 0,0
11.11.2018 14:00:00 12,7 6,1 - - 26 14 - - SW 0,0
11.11.2018 13:00:00 12,5 7,3 - - 24 13 - - SW 0,0
11.11.2018 12:00:00 12,2 7,8 - - 26 14 - - SW 0,0
11.11.2018 11:00:00 11,0 7,5 - - 28 15 48 26 SW 0,0
11.11.2018 10:00:00 10,3 8,1 - - 21 11 - - SW 0,0
11.11.2018 09:00:00 9,2 8,7 10,2 11,4 13 7 - - S 0,0
11.11.2018 08:00:00 8,6 8,2 - - 11 6 - - S 0,8
11.11.2018 07:00:00 7,9 7,6 - - 9 5 - - S 0,0
11.11.2018 06:00:00 7,3 7,0 - - 9 5 - - S 0,0
11.11.2018 05:00:00 7,7 7,3 - - 9 5 - - S 0,0
11.11.2018 04:00:00 7,6 7,4 - - 9 5 - - S 0,0
11.11.2018 03:00:00 8,0 7,6 - - 9 5 - - SSW 0,2
11.11.2018 02:00:00 8,6 8,2 - - 9 5 - - S 0,0
11.11.2018 01:00:00 9,0 8,5 - - 9 5 - - S 0,0
11.11.2018 00:00:00 8,9 8,4 - - 11 6 - - SSW 0,0
10.11.2018 23:00:00 9,0 8,4 - - 11 6 - - S 0,0
10.11.2018 22:00:00 9,2 8,3 - - 11 6 - - S 0,0
10.11.2018 21:00:00 9,3 8,2 - - 13 7 - - S 0,0
10.11.2018 20:00:00 9,3 8,1 - - 13 7 - - S 0,0
10.11.2018 19:00:00 9,1 8,1 - - 11 6 - - S 0,0
10.11.2018 18:00:00 9,3 8,1 - - 13 7 - - S 0,0
10.11.2018 17:00:00 9,6 8,6 - - 11 6 - - S 0,2
10.11.2018 16:00:00 9,5 8,7 - - 9 5 - - S 2,0
10.11.2018 15:00:00 9,3 7,7 - - 24 13 - - SW 1,6
10.11.2018 14:00:00 13,4 8,7 - - 18 10 - - S 0,0
10.11.2018 13:00:00 14,1 9,6 - - 16 9 - - S 0,0
10.11.2018 12:00:00 14,0 9,5 - - 18 10 - - SSW 0,0
10.11.2018 11:00:00 12,8 9,9 - - 16 9 - - SSW 0,0
10.11.2018 10:00:00 11,1 9,2 - - 15 8 - - SSW 0,0
10.11.2018 09:00:00 9,6 8,5 10,2 11,5 13 7 - - SSW 0,0
10.11.2018 08:00:00 7,8 7,3 - - 11 6 - - SSW 0,0
10.11.2018 07:00:00 8,4 7,6 - - 16 9 - - SSW 0,2
10.11.2018 06:00:00 8,8 7,7 - - 13 7 - - SSW 0,0
10.11.2018 05:00:00 9,0 7,8 - - 15 8 - - SSW 0,0
10.11.2018 04:00:00 9,9 8,7 - - 15 8 - - SSW 0,0
10.11.2018 03:00:00 10,3 9,3 - - 13 7 50 27 SSW 0,0
10.11.2018 02:00:00 10,6 10,2 - - 18 10 - - SSW 0,6
10.11.2018 01:00:00 10,3 9,7 - - 16 9 - - S 1,2
10.11.2018 00:00:00 10,1 9,4 - - 21 11 - - S 1,0
09.11.2018 23:00:00 10,1 9,1 - - 21 11 - - S 0,8
09.11.2018 22:00:00 10,3 9,3 - - 21 11 - - S 1,2
09.11.2018 21:00:00 9,9 8,4 - - 16 9 - - S 1,4
09.11.2018 20:00:00 10,8 7,0 - - 21 11 - - S 0,0
09.11.2018 19:00:00 11,0 6,7 - - 21 11 - - S 0,0
09.11.2018 18:00:00 11,0 6,6 - - 16 9 - - S 0,0
09.11.2018 17:00:00 11,1 6,0 - - 16 9 - - S 0,0
09.11.2018 16:00:00 11,3 7,3 - - 15 8 - - S 0,0
09.11.2018 15:00:00 12,1 9,2 - - 16 9 - - S 0,0
09.11.2018 14:00:00 12,3 9,2 - - 15 8 - - S 0,0
09.11.2018 13:00:00 12,1 9,4 - - 13 7 - - S 0,0
09.11.2018 12:00:00 11,0 9,0 - - 16 9 - - S 0,0
09.11.2018 11:00:00 10,3 8,8 - - 13 7 - - SSE 0,0
09.11.2018 10:00:00 8,9 8,1 - - 9 5 - - SSE 0,0
09.11.2018 09:00:00 7,6 7,4 10,2 11,5 9 5 - - SSE 0,0
09.11.2018 08:00:00 6,0 5,7 - - 4 2 - - SSE 0,0
09.11.2018 07:00:00 6,0 5,5 - - 8 4 - - SSE 0,2
09.11.2018 06:00:00 6,5 6,0 - - 9 5 - - SSE 0,0
09.11.2018 05:00:00 6,4 5,9 - - 9 5 - - SSE 0,0

tt = temperature
td = dewpoint
tt -20cm = temperature -20cm
tt -100cm = temperature -100cm
ff = wind speed
fx = gusts
dd = wind direction
rr = precipitation

Next stations